Time;durP1;ratioP1;P1;durP2;ratioP2;P2;SDS_P1;SDS_P2;PMS_P1;PMS_P2;Temp;Humidity;BMP_temperature;BMP_pressure;BME280_temperature;BME280_humidity;BME280_pressure;Samples;Min_cycle;Max_cycle;Signal;HPM_P1;HPM_P2
2021/07/11 00:01:41;;;;;;;7.22;5.90;;;20.60;99.90;;;;;;4189610;28;20090;-61
2021/07/11 00:03:42;;;;;;;9.75;5.95;;;20.50;99.90;;;;;;4188505;28;20489;-58
2021/07/11 00:05:43;;;;;;;9.35;6.50;;;20.50;99.90;;;;;;4188543;28;20032;-62
2021/07/11 00:07:45;;;;;;;9.35;6.22;;;20.50;99.90;;;;;;4188527;28;20056;-61
2021/07/11 00:09:46;;;;;;;13.77;6.43;;;20.50;99.90;;;;;;4188833;28;20565;-60
2021/07/11 00:11:47;;;;;;;10.80;6.20;;;20.50;99.90;;;;;;4188504;28;20071;-59
2021/07/11 00:13:48;;;;;;;9.68;5.80;;;20.50;99.90;;;;;;4188081;28;20052;-60
2021/07/11 00:15:50;;;;;;;10.02;6.05;;;20.50;99.90;;;;;;4188741;28;20980;-60
2021/07/11 00:17:52;;;;;;;9.93;5.97;;;20.50;99.90;;;;;;4188968;28;20090;-60
2021/07/11 00:19:55;;;;;;;8.00;6.05;;;20.50;99.90;;;;;;4188658;28;20024;-61
2021/07/11 00:21:57;;;;;;;7.40;5.55;;;20.50;99.90;;;;;;4188674;28;20024;-59
2021/07/11 00:23:58;;;;;;;6.88;5.82;;;20.50;99.90;;;;;;4188625;28;20033;-61
2021/07/11 00:26:02;;;;;;;10.77;5.80;;;20.40;99.90;;;;;;4188181;28;20033;-60
2021/07/11 00:28:04;;;;;;;8.15;5.72;;;20.40;99.90;;;;;;4188524;28;20037;-61
2021/07/11 00:30:06;;;;;;;9.02;6.00;;;20.30;99.90;;;;;;4188500;28;20044;-59
2021/07/11 00:32:07;;;;;;;9.88;6.43;;;20.30;99.90;;;;;;4189117;28;20089;-60
2021/07/11 00:34:09;;;;;;;11.48;6.10;;;20.20;99.90;;;;;;4188386;28;20032;-61
2021/07/11 00:36:10;;;;;;;6.47;5.55;;;20.20;99.90;;;;;;4188283;28;20102;-61
2021/07/11 00:38:12;;;;;;;9.15;6.40;;;20.20;99.90;;;;;;4188210;28;20663;-60
2021/07/11 00:40:13;;;;;;;7.63;6.07;;;20.20;99.90;;;;;;4188674;28;20435;-59
2021/07/11 00:42:16;;;;;;;8.32;5.55;;;20.10;99.90;;;;;;4188329;28;20029;-60
2021/07/11 00:44:17;;;;;;;7.63;5.90;;;20.10;99.90;;;;;;4187569;28;20040;-62
2021/07/11 00:46:18;;;;;;;11.20;5.50;;;20.20;99.90;;;;;;4188743;28;20036;-61
2021/07/11 00:48:19;;;;;;;12.20;5.93;;;20.20;99.90;;;;;;4188934;28;20098;-61
2021/07/11 00:50:23;;;;;;;7.07;5.45;;;20.20;99.90;;;;;;4187833;28;20036;-61
2021/07/11 00:52:24;;;;;;;5.82;5.22;;;20.20;99.90;;;;;;4188232;28;20074;-62
2021/07/11 00:54:25;;;;;;;13.18;5.80;;;20.10;99.90;;;;;;4188771;28;20496;-61
2021/07/11 00:56:26;;;;;;;10.30;5.07;;;20.10;99.90;;;;;;4188332;28;20082;-61
2021/07/11 00:58:29;;;;;;;8.80;4.65;;;20.10;99.90;;;;;;4188115;28;20083;-60
2021/07/11 01:00:31;;;;;;;7.35;5.20;;;20.00;99.90;;;;;;4188534;28;20045;-60
2021/07/11 01:02:43;;;;;;;9.55;5.25;;;20.00;99.90;;;;;;4189082;28;20082;-60
2021/07/11 01:05:23;;;;;;;7.22;5.85;;;20.00;99.90;;;;;;4188299;28;20041;-60
2021/07/11 01:07:35;;;;;;;7.03;5.00;;;20.00;99.90;;;;;;4185238;28;20048;-60
2021/07/11 01:09:44;;;;;;;9.57;6.47;;;20.00;99.90;;;;;;4185491;28;20033;-61
2021/07/11 01:11:54;;;;;;;8.43;5.37;;;20.00;99.90;;;;;;4186135;28;20097;-60
2021/07/11 01:13:57;;;;;;;13.65;5.93;;;20.00;99.90;;;;;;4188293;28;20277;-60
2021/07/11 01:16:08;;;;;;;7.97;5.25;;;20.00;99.90;;;;;;4188352;28;20028;-60
2021/07/11 01:18:12;;;;;;;7.18;5.57;;;19.90;99.90;;;;;;4189213;28;20036;-60
2021/07/11 01:20:38;;;;;;;8.40;5.60;;;19.90;99.90;;;;;;4187574;28;20040;-61
2021/07/11 01:22:45;;;;;;;8.75;5.70;;;19.90;99.90;;;;;;4188198;28;20024;-60
2021/07/11 01:25:23;;;;;;;9.38;5.68;;;19.90;99.90;;;;;;4188547;28;20032;-61
2021/07/11 01:27:27;;;;;;;8.75;5.45;;;19.90;99.90;;;;;;4188295;28;20052;-61
2021/07/11 01:29:29;;;;;;;6.40;5.65;;;19.90;99.90;;;;;;4181882;28;20050;-61
2021/07/11 01:31:31;;;;;;;9.23;5.53;;;19.90;99.90;;;;;;4189615;28;20048;-57
2021/07/11 01:33:36;;;;;;;9.90;5.90;;;19.90;99.90;;;;;;4191420;28;20090;-61
2021/07/11 01:35:39;;;;;;;10.68;6.07;;;19.90;99.90;;;;;;4190339;28;20608;-62
2021/07/11 01:37:41;;;;;;;7.10;5.88;;;19.90;99.90;;;;;;4190674;28;20028;-61
2021/07/11 01:39:43;;;;;;;8.52;5.50;;;19.90;99.90;;;;;;4190788;28;20044;-60
2021/07/11 01:41:45;;;;;;;8.95;5.32;;;19.80;99.90;;;;;;4194674;28;20358;-60
2021/07/11 01:43:52;;;;;;;7.35;5.68;;;19.70;99.90;;;;;;4190940;28;20041;-60
2021/07/11 01:45:54;;;;;;;10.23;5.55;;;19.80;99.90;;;;;;4189462;28;20086;-61
2021/07/11 01:47:56;;;;;;;11.20;6.13;;;19.70;99.90;;;;;;4190926;28;20745;-61
2021/07/11 01:49:57;;;;;;;8.02;5.50;;;19.70;99.90;;;;;;4190578;28;20029;-61
2021/07/11 01:51:58;;;;;;;7.03;5.47;;;19.70;99.90;;;;;;4190435;28;20447;-60
2021/07/11 01:54:00;;;;;;;10.50;5.72;;;19.70;99.90;;;;;;4191002;28;20423;-61
2021/07/11 01:56:06;;;;;;;7.07;5.38;;;19.70;99.90;;;;;;4190204;28;20086;-60
2021/07/11 01:58:07;;;;;;;7.45;6.38;;;19.60;99.90;;;;;;4190575;28;20036;-57
2021/07/11 02:00:12;;;;;;;9.15;5.63;;;19.60;99.90;;;;;;4190207;28;20060;-59
2021/07/11 02:02:15;;;;;;;7.38;5.45;;;19.60;99.90;;;;;;4189518;28;20131;-61
2021/07/11 02:04:16;;;;;;;9.68;5.20;;;19.60;99.90;;;;;;4190926;28;20036;-61
2021/07/11 02:06:17;;;;;;;7.65;5.70;;;19.60;99.90;;;;;;4190231;28;20032;-61
2021/07/11 02:08:22;;;;;;;7.65;5.70;;;19.60;99.90;;;;;;4190533;28;20927;-61
2021/07/11 02:10:24;;;;;;;7.43;4.88;;;19.60;99.90;;;;;;4190296;28;20033;-60
2021/07/11 02:12:28;;;;;;;6.80;5.95;;;19.50;99.90;;;;;;4190593;28;20105;-60
2021/07/11 02:14:32;;;;;;;5.65;5.07;;;19.50;99.90;;;;;;4190876;28;20090;-57
2021/07/11 02:16:59;;;;;;;8.88;5.40;;;19.50;99.90;;;;;;4190518;28;20032;-61
2021/07/11 02:19:01;;;;;;;6.78;5.47;;;19.50;99.90;;;;;;4190193;28;21023;-61
2021/07/11 02:21:04;;;;;;;6.85;6.00;;;19.50;99.90;;;;;;4189911;28;20079;-61
2021/07/11 02:23:06;;;;;;;8.63;5.25;;;19.50;99.90;;;;;;4188158;28;20028;-61
2021/07/11 02:25:09;;;;;;;7.53;5.55;;;19.60;99.90;;;;;;4190226;28;20028;-60
2021/07/11 02:27:11;;;;;;;10.30;5.78;;;19.60;99.90;;;;;;4189558;28;20082;-59
2021/07/11 02:29:12;;;;;;;7.47;6.05;;;19.50;99.90;;;;;;4189791;28;20450;-60
2021/07/11 02:31:14;;;;;;;10.13;6.38;;;19.50;99.90;;;;;;4190176;28;20074;-62
2021/07/11 02:33:15;;;;;;;12.20;6.00;;;19.40;99.90;;;;;;4190593;28;20078;-60
2021/07/11 02:35:23;;;;;;;10.60;6.03;;;19.30;99.90;;;;;;4189422;28;20098;-60
2021/07/11 02:37:24;;;;;;;8.73;5.85;;;19.30;99.90;;;;;;4188488;28;20492;-61
2021/07/11 02:39:25;;;;;;;10.07;5.80;;;19.30;99.90;;;;;;4190075;28;20066;-59
2021/07/11 02:41:29;;;;;;;11.02;6.50;;;19.30;99.90;;;;;;4189801;28;20427;-62
2021/07/11 02:43:32;;;;;;;9.50;5.90;;;19.30;99.90;;;;;;4190292;28;20040;-59
2021/07/11 02:45:34;;;;;;;11.07;6.20;;;19.30;99.90;;;;;;4189803;28;20055;-60
2021/07/11 02:47:40;;;;;;;11.93;6.70;;;19.20;99.90;;;;;;4190126;28;20025;-58
2021/07/11 02:49:45;;;;;;;7.20;5.80;;;19.20;99.90;;;;;;4189982;28;20764;-60
2021/07/11 02:51:51;;;;;;;10.90;6.07;;;19.30;99.90;;;;;;4189809;28;20538;-60
2021/07/11 02:53:56;;;;;;;9.25;6.60;;;19.30;99.90;;;;;;4189805;28;20040;-61
2021/07/11 02:56:00;;;;;;;10.98;6.68;;;19.40;99.90;;;;;;4189414;28;20089;-58
2021/07/11 02:58:12;;;;;;;8.93;6.43;;;19.40;99.90;;;;;;4189492;28;20052;-64
2021/07/11 03:00:13;;;;;;;7.55;6.05;;;19.40;99.90;;;;;;4189334;28;20037;-61
2021/07/11 03:02:15;;;;;;;10.38;6.88;;;19.50;99.90;;;;;;4190348;28;20142;-60
2021/07/11 03:04:20;;;;;;;9.23;6.68;;;19.50;99.90;;;;;;4190041;28;20915;-60
2021/07/11 03:06:21;;;;;;;9.95;6.50;;;19.60;99.90;;;;;;4190094;28;20044;-58
2021/07/11 03:08:23;;;;;;;8.73;6.32;;;19.70;99.90;;;;;;4188923;28;20041;-60
2021/07/11 03:10:24;;;;;;;12.13;7.07;;;19.80;99.90;;;;;;4189674;28;20037;-60
2021/07/11 03:12:26;;;;;;;16.58;7.60;;;20.00;99.90;;;;;;4189318;28;20036;-60
2021/07/11 03:14:28;;;;;;;13.45;7.05;;;20.10;99.90;;;;;;4189195;28;20479;-60
2021/07/11 03:16:30;;;;;;;9.63;6.38;;;20.30;99.90;;;;;;4189333;28;20373;-60
2021/07/11 03:18:35;;;;;;;9.80;5.93;;;20.40;99.90;;;;;;4189465;28;20100;-61
2021/07/11 03:20:37;;;;;;;8.93;5.97;;;20.60;99.90;;;;;;4189184;28;20560;-60
2021/07/11 03:22:39;;;;;;;11.63;6.40;;;20.80;99.90;;;;;;4189287;28;20041;-61
2021/07/11 03:24:40;;;;;;;8.57;5.80;;;20.90;99.90;;;;;;4189577;28;20028;-63
2021/07/11 03:26:42;;;;;;;12.02;6.15;;;21.10;99.90;;;;;;4189027;28;20036;-60
2021/07/11 03:28:45;;;;;;;10.70;6.53;;;21.30;99.90;;;;;;4188830;28;20094;-58
2021/07/11 03:30:50;;;;;;;10.07;6.18;;;21.50;99.90;;;;;;4188134;28;20033;-61
2021/07/11 03:32:55;;;;;;;7.07;6.30;;;21.80;99.90;;;;;;4189399;28;20074;-61
2021/07/11 03:35:00;;;;;;;8.98;6.10;;;22.00;99.90;;;;;;4188933;28;20048;-59
2021/07/11 03:37:09;;;;;;;10.70;5.63;;;22.30;99.90;;;;;;4188432;28;20032;-59
2021/07/11 03:39:10;;;;;;;7.50;5.32;;;22.50;99.90;;;;;;4189101;28;20169;-60
2021/07/11 03:41:16;;;;;;;7.07;5.93;;;22.70;99.90;;;;;;4188717;28;20046;-61
2021/07/11 03:43:22;;;;;;;8.32;5.50;;;22.70;99.90;;;;;;4189046;28;20086;-61
2021/07/11 03:45:25;;;;;;;6.65;4.63;;;22.80;99.90;;;;;;4189035;28;20374;-60
2021/07/11 03:47:40;;;;;;;5.55;5.00;;;23.00;99.90;;;;;;4189095;28;20029;-62
2021/07/11 03:49:47;;;;;;;9.02;5.22;;;23.20;99.90;;;;;;4188767;28;20127;-61
2021/07/11 03:51:48;;;;;;;9.75;4.88;;;23.40;99.90;;;;;;4187717;28;20044;-61
2021/07/11 03:53:53;;;;;;;6.88;5.18;;;23.70;99.90;;;;;;4188890;28;20081;-62
2021/07/11 03:55:57;;;;;;;7.63;4.80;;;24.00;99.90;;;;;;4189097;28;20082;-60
2021/07/11 03:58:00;;;;;;;7.40;4.40;;;24.30;99.90;;;;;;4189117;28;20097;-60
2021/07/11 04:00:03;;;;;;;12.18;5.35;;;24.60;99.90;;;;;;4188003;28;20518;-60
2021/07/11 04:02:06;;;;;;;6.00;4.28;;;24.80;99.90;;;;;;4189393;28;20506;-61
2021/07/11 04:04:15;;;;;;;8.25;4.45;;;24.80;99.90;;;;;;4188605;28;20045;-60
2021/07/11 04:06:18;;;;;;;9.25;4.75;;;25.10;99.90;;;;;;4188181;28;20032;-59
2021/07/11 04:08:21;;;;;;;5.60;3.80;;;25.40;99.90;;;;;;4188338;28;20032;-60
2021/07/11 04:10:25;;;;;;;8.43;4.10;;;25.60;99.90;;;;;;4188605;28;20059;-60
2021/07/11 04:12:26;;;;;;;5.85;4.40;;;26.00;99.90;;;;;;4188193;28;20040;-61
2021/07/11 04:14:27;;;;;;;5.03;3.60;;;26.30;99.90;;;;;;4188920;28;20443;-59
2021/07/11 04:16:32;;;;;;;8.15;4.43;;;26.60;99.30;;;;;;4188502;28;20028;-62
2021/07/11 04:18:43;;;;;;;5.50;3.85;;;26.90;98.90;;;;;;4188739;28;20036;-61
2021/07/11 04:20:47;;;;;;;4.18;3.72;;;27.30;97.80;;;;;;4188463;28;20040;-60
2021/07/11 04:22:51;;;;;;;6.43;4.20;;;27.70;97.70;;;;;;4188556;28;20021;-61
2021/07/11 04:24:54;;;;;;;4.95;4.35;;;27.90;97.10;;;;;;4188806;28;20439;-60
2021/07/11 04:26:56;;;;;;;7.88;4.13;;;28.10;96.60;;;;;;4188614;28;20114;-59
2021/07/11 04:28:59;;;;;;;6.00;4.55;;;28.40;96.10;;;;;;4188291;28;20438;-62
2021/07/11 04:31:02;;;;;;;6.00;3.70;;;28.50;95.50;;;;;;4188345;28;20742;-60
2021/07/11 04:33:04;;;;;;;3.53;3.05;;;28.50;95.20;;;;;;4188722;28;20033;-61
2021/07/11 04:35:06;;;;;;;10.18;3.42;;;28.70;94.90;;;;;;4188717;28;20041;-59
2021/07/11 04:37:08;;;;;;;6.22;4.65;;;28.70;94.60;;;;;;4188194;28;20041;-61
2021/07/11 04:39:09;;;;;;;6.57;3.60;;;28.60;94.30;;;;;;4188470;28;20098;-60
2021/07/11 04:41:11;;;;;;;8.43;3.63;;;28.60;94.10;;;;;;4189741;28;20052;-60
2021/07/11 04:43:16;;;;;;;4.10;3.70;;;28.90;93.80;;;;;;4198621;28;20074;-62
2021/07/11 04:45:19;;;;;;;5.43;4.13;;;29.20;93.20;;;;;;4189575;28;20045;-60
2021/07/11 04:47:20;;;;;;;4.07;3.63;;;29.60;92.80;;;;;;4188627;28;20066;-61
2021/07/11 04:49:24;;;;;;;4.95;3.72;;;29.70;92.20;;;;;;4188352;28;20065;-63
2021/07/11 04:51:25;;;;;;;10.07;3.78;;;29.70;91.70;;;;;;4188002;28;20538;-62
2021/07/11 04:53:29;;;;;;;8.57;3.60;;;29.40;91.90;;;;;;4188274;28;20538;-60
2021/07/11 04:55:30;;;;;;;6.47;3.20;;;29.30;91.70;;;;;;4188128;28;20028;-62
2021/07/11 04:57:31;;;;;;;4.05;3.58;;;29.30;91.60;;;;;;4188269;28;20028;-62
2021/07/11 04:59:32;;;;;;;6.38;4.07;;;29.30;91.50;;;;;;4187852;28;20044;-59
2021/07/11 05:01:34;;;;;;;8.13;3.80;;;29.60;91.30;;;;;;4190816;28;20041;-61
2021/07/11 05:03:35;;;;;;;5.28;4.63;;;29.80;91.00;;;;;;4191421;28;20036;-61
2021/07/11 05:05:37;;;;;;;5.20;4.00;;;29.90;90.50;;;;;;4191047;28;20098;-62
2021/07/11 05:07:38;;;;;;;6.03;4.15;;;30.10;90.30;;;;;;4190848;28;20434;-62
2021/07/11 05:09:39;;;;;;;7.43;4.15;;;30.30;90.00;;;;;;4191007;28;20107;-61
2021/07/11 05:11:40;;;;;;;9.25;3.92;;;30.50;89.60;;;;;;4189704;28;20036;-59
2021/07/11 05:13:41;;;;;;;4.75;4.13;;;30.60;88.90;;;;;;4191287;28;20098;-61
2021/07/11 05:15:43;;;;;;;6.10;3.60;;;30.40;88.40;;;;;;4191582;28;20032;-60
2021/07/11 05:17:44;;;;;;;4.80;3.80;;;30.30;88.70;;;;;;4191614;28;20075;-62
2021/07/11 05:19:45;;;;;;;7.50;4.22;;;30.20;89.30;;;;;;4191450;28;20102;-61
2021/07/11 05:21:46;;;;;;;9.82;4.25;;;30.30;88.70;;;;;;4190717;28;20024;-60
2021/07/11 05:23:48;;;;;;;8.65;4.60;;;30.50;88.30;;;;;;4190952;28;20110;-61
2021/07/11 05:25:49;;;;;;;4.97;4.05;;;30.50;87.70;;;;;;4190713;28;20017;-63
2021/07/11 05:27:50;;;;;;;4.80;4.32;;;30.50;87.90;;;;;;4191525;28;20059;-61
2021/07/11 05:29:51;;;;;;;5.60;3.55;;;30.40;87.70;;;;;;4191084;28;20102;-61
2021/07/11 05:31:53;;;;;;;7.28;4.57;;;30.40;87.70;;;;;;4190796;28;20937;-62
2021/07/11 05:33:54;;;;;;;11.48;5.97;;;30.50;87.50;;;;;;4191479;28;20086;-60
2021/07/11 05:35:55;;;;;;;8.38;4.72;;;30.80;87.00;;;;;;4190275;28;20137;-58
2021/07/11 05:37:58;;;;;;;9.13;5.50;;;31.00;86.30;;;;;;4189881;28;20074;-61
2021/07/11 05:40:02;;;;;;;11.48;6.13;;;31.30;85.40;;;;;;4191019;28;20052;-60
2021/07/11 05:42:03;;;;;;;7.60;5.60;;;30.80;85.20;;;;;;4190634;28;20045;-60
2021/07/11 05:44:04;;;;;;;6.63;5.00;;;30.00;86.00;;;;;;4189104;28;20032;-61
2021/07/11 05:46:06;;;;;;;11.00;5.65;;;29.70;87.00;;;;;;4190673;28;20024;-60
2021/07/11 05:48:07;;;;;;;14.10;6.32;;;29.60;87.20;;;;;;4190460;28;20082;-61
2021/07/11 05:50:09;;;;;;;8.18;5.60;;;29.30;87.80;;;;;;4190380;28;20098;-61
2021/07/11 05:52:10;;;;;;;10.80;5.88;;;28.80;88.70;;;;;;4190208;28;20028;-61
2021/07/11 05:54:12;;;;;;;10.18;5.50;;;28.30;89.90;;;;;;4190385;28;20032;-60
2021/07/11 05:56:13;;;;;;;9.07;6.13;;;27.60;90.80;;;;;;4190446;28;20028;-59
2021/07/11 05:58:14;;;;;;;14.48;6.00;;;27.50;91.10;;;;;;4190509;28;20036;-60
2021/07/11 06:00:16;;;;;;;7.28;5.88;;;27.10;91.50;;;;;;4190078;28;20488;-60
2021/07/11 06:02:17;;;;;;;11.52;6.07;;;27.00;91.80;;;;;;4190707;28;20090;-60
2021/07/11 06:04:18;;;;;;;16.25;6.63;;;26.90;91.90;;;;;;4190195;28;20558;-60
2021/07/11 06:06:21;;;;;;;9.43;5.85;;;26.70;92.30;;;;;;4189872;28;20075;-60
2021/07/11 06:08:22;;;;;;;8.35;5.60;;;26.60;92.60;;;;;;4189977;28;20094;-62
2021/07/11 06:10:23;;;;;;;7.95;6.07;;;26.70;92.70;;;;;;4190482;28;20101;-62
2021/07/11 06:12:25;;;;;;;7.38;5.93;;;26.50;92.90;;;;;;4189273;28;20502;-62
2021/07/11 06:14:26;;;;;;;9.25;4.47;;;26.70;93.10;;;;;;4179513;28;20082;-62
2021/07/11 06:16:27;;;;;;;8.25;4.78;;;26.90;92.90;;;;;;4189907;28;20114;-60
2021/07/11 06:18:28;;;;;;;8.32;4.93;;;27.20;92.60;;;;;;4190176;28;20025;-61
2021/07/11 06:20:32;;;;;;;6.78;4.53;;;27.70;92.10;;;;;;4189599;28;20033;-61
2021/07/11 06:22:34;;;;;;;8.45;4.80;;;28.30;91.70;;;;;;4189902;28;20626;-60
2021/07/11 06:24:35;;;;;;;5.53;4.93;;;29.00;91.10;;;;;;4189782;28;20040;-61
2021/07/11 06:26:36;;;;;;;8.07;4.50;;;28.90;90.90;;;;;;4189718;28;20078;-61
2021/07/11 06:28:37;;;;;;;8.98;4.65;;;28.90;91.10;;;;;;4189825;28;20028;-61
2021/07/11 06:30:38;;;;;;;6.85;4.22;;;29.10;91.00;;;;;;4190200;28;20491;-60
2021/07/11 06:32:40;;;;;;;6.65;5.30;;;29.20;91.00;;;;;;4189617;28;20036;-61
2021/07/11 06:34:42;;;;;;;14.52;10.60;;;29.50;90.80;;;;;;4188889;28;20911;-61
2021/07/11 06:36:43;;;;;;;12.27;6.40;;;29.60;90.60;;;;;;4189553;28;20032;-61
2021/07/11 06:38:44;;;;;;;14.07;6.25;;;28.90;90.70;;;;;;4189808;28;20036;-62
2021/07/11 06:40:45;;;;;;;8.90;6.40;;;28.20;91.30;;;;;;4190070;28;20032;-60
2021/07/11 06:42:47;;;;;;;10.73;6.53;;;27.80;92.00;;;;;;4189363;28;20021;-63
2021/07/11 06:44:49;;;;;;;11.10;7.07;;;27.90;92.40;;;;;;4189215;28;20038;-62
2021/07/11 06:46:50;;;;;;;10.10;6.85;;;27.40;92.70;;;;;;4189682;28;20032;-62
2021/07/11 06:48:51;;;;;;;14.52;7.80;;;26.80;93.60;;;;;;4189621;28;20021;-62
2021/07/11 06:50:53;;;;;;;10.77;8.38;;;26.50;93.90;;;;;;4189424;28;20032;-61
2021/07/11 06:52:54;;;;;;;12.73;6.72;;;26.20;94.60;;;;;;4189105;28;20086;-62
2021/07/11 06:54:55;;;;;;;10.07;7.47;;;26.30;94.70;;;;;;4189093;28;20106;-62
2021/07/11 06:56:56;;;;;;;10.25;7.22;;;26.30;94.90;;;;;;4189648;28;20032;-62
2021/07/11 06:58:58;;;;;;;8.63;6.68;;;26.30;95.10;;;;;;4188614;28;20431;-59
2021/07/11 07:00:59;;;;;;;13.25;7.55;;;26.10;95.40;;;;;;4189056;28;20032;-61
2021/07/11 07:03:00;;;;;;;20.20;8.65;;;26.10;95.50;;;;;;4189299;28;20036;-62
2021/07/11 07:05:04;;;;;;;13.57;6.55;;;26.00;95.70;;;;;;4188542;28;20157;-63
2021/07/11 07:07:05;;;;;;;9.93;7.72;;;25.90;96.00;;;;;;4188925;28;20032;-64
2021/07/11 07:09:06;;;;;;;7.35;6.60;;;25.90;96.30;;;;;;4189651;28;20017;-64
2021/07/11 07:11:07;;;;;;;10.20;6.45;;;26.00;96.50;;;;;;4188829;28;20487;-65
2021/07/11 07:13:08;;;;;;;7.80;6.70;;;26.10;96.30;;;;;;4189393;28;20032;-69
2021/07/11 07:15:11;;;;;;;10.27;6.95;;;26.30;96.40;;;;;;4189108;28;20020;-67
2021/07/11 07:17:12;;;;;;;11.98;6.78;;;26.30;96.60;;;;;;4188895;28;20024;-66
2021/07/11 07:19:13;;;;;;;11.50;7.70;;;26.30;97.00;;;;;;4189049;28;20098;-63
2021/07/11 07:21:14;;;;;;;8.25;6.25;;;26.30;97.20;;;;;;4188746;28;20093;-65
2021/07/11 07:23:15;;;;;;;8.82;7.45;;;26.10;97.30;;;;;;4188565;28;20033;-62
2021/07/11 07:25:18;;;;;;;18.05;7.95;;;26.00;97.70;;;;;;4187670;28;20457;-64
2021/07/11 07:27:19;;;;;;;13.32;7.93;;;26.00;97.80;;;;;;4188592;28;20089;-63
2021/07/11 07:29:20;;;;;;;10.57;7.72;;;26.10;97.90;;;;;;4188795;28;20052;-64
2021/07/11 07:31:22;;;;;;;9.77;7.72;;;26.10;98.20;;;;;;4189350;28;20078;-66
2021/07/11 07:33:23;;;;;;;11.75;7.85;;;25.90;98.30;;;;;;4189058;28;20117;-63
2021/07/11 07:35:24;;;;;;;11.15;7.63;;;25.80;98.70;;;;;;4187735;28;20109;-64
2021/07/11 07:37:25;;;;;;;9.48;7.28;;;26.00;98.60;;;;;;4197857;28;20032;-64
2021/07/11 07:39:29;;;;;;;10.32;7.78;;;26.10;98.50;;;;;;4200750;28;20070;-63
2021/07/11 07:41:31;;;;;;;12.05;7.85;;;26.20;98.50;;;;;;4188562;28;20067;-64
2021/07/11 07:43:32;;;;;;;12.25;7.80;;;26.10;98.60;;;;;;4187968;28;20032;-64
2021/07/11 07:45:33;;;;;;;11.48;7.28;;;26.20;98.70;;;;;;4188994;28;20029;-63
2021/07/11 07:47:34;;;;;;;11.80;8.23;;;26.20;98.80;;;;;;4189882;28;20477;-63
2021/07/11 07:49:35;;;;;;;11.50;8.00;;;26.30;98.80;;;;;;4188416;28;20037;-63
2021/07/11 07:51:37;;;;;;;10.13;7.32;;;26.30;98.90;;;;;;4188386;28;20037;-65
2021/07/11 07:53:38;;;;;;;12.90;7.35;;;26.30;98.90;;;;;;4186454;28;20101;-64
2021/07/11 07:55:39;;;;;;;10.20;7.63;;;26.40;98.90;;;;;;4187974;28;20677;-66
2021/07/11 07:57:40;;;;;;;14.60;7.18;;;26.20;99.10;;;;;;4187731;28;20028;-64
2021/07/11 07:59:42;;;;;;;8.98;7.82;;;26.30;99.20;;;;;;4188207;28;20036;-65
2021/07/11 08:01:43;;;;;;;15.65;7.95;;;26.50;98.90;;;;;;4187108;28;20029;-61
2021/07/11 08:03:44;;;;;;;9.45;6.97;;;26.70;99.10;;;;;;4188660;28;20041;-64
2021/07/11 08:05:46;;;;;;;8.02;6.78;;;26.80;98.80;;;;;;4177893;28;20040;-63
2021/07/11 08:07:47;;;;;;;9.88;8.10;;;27.00;98.60;;;;;;4178699;28;20098;-67
2021/07/11 08:09:49;;;;;;;10.38;7.43;;;26.90;98.60;;;;;;4188682;28;20048;-63
2021/07/11 08:11:51;;;;;;;7.55;6.80;;;26.90;98.80;;;;;;4188802;28;20033;-72
2021/07/11 08:13:52;;;;;;;9.20;7.00;;;26.90;98.90;;;;;;4186668;28;20044;-63
2021/07/11 08:15:53;;;;;;;7.68;5.82;;;26.90;98.70;;;;;;4187776;28;20036;-67
2021/07/11 08:17:54;;;;;;;7.30;6.13;;;26.80;98.60;;;;;;4187741;28;20028;-66
2021/07/11 08:19:55;;;;;;;8.63;6.57;;;26.80;98.70;;;;;;4188214;28;20051;-64
2021/07/11 08:21:57;;;;;;;12.02;7.13;;;26.70;98.70;;;;;;4188579;28;20443;-64
2021/07/11 08:23:58;;;;;;;8.35;6.43;;;27.00;98.50;;;;;;4188236;28;20102;-64
2021/07/11 08:26:00;;;;;;;8.30;7.05;;;27.10;98.20;;;;;;4188198;28;20146;-64
2021/07/11 08:28:01;;;;;;;9.55;7.10;;;27.20;98.20;;;;;;4188044;28;20045;-64
2021/07/11 08:30:04;;;;;;;6.80;6.07;;;27.10;98.10;;;;;;4188064;28;20153;-64
2021/07/11 08:32:06;;;;;;;8.35;6.25;;;27.10;98.00;;;;;;4188125;28;20540;-63
2021/07/11 08:34:07;;;;;;;22.85;12.23;;;27.00;98.00;;;;;;4187761;28;20074;-65
2021/07/11 08:36:08;;;;;;;7.03;6.15;;;27.00;98.00;;;;;;4191185;28;20052;-64
2021/07/11 08:38:09;;;;;;;9.32;6.25;;;27.30;97.70;;;;;;4191014;28;20036;-63
2021/07/11 08:40:11;;;;;;;9.95;6.25;;;27.30;97.40;;;;;;4190768;28;20040;-63
2021/07/11 08:42:13;;;;;;;11.90;5.68;;;27.40;97.30;;;;;;4191245;28;20032;-63
2021/07/11 08:44:14;;;;;;;6.85;6.20;;;27.30;97.20;;;;;;4191363;28;20102;-65
2021/07/11 08:46:15;;;;;;;8.85;6.15;;;27.30;97.20;;;;;;4191395;28;20548;-64
2021/07/11 08:48:16;;;;;;;9.15;5.40;;;27.30;97.20;;;;;;4190999;28;20040;-64
2021/07/11 08:50:18;;;;;;;6.88;5.82;;;27.50;97.20;;;;;;4190972;28;20094;-64
2021/07/11 08:52:19;;;;;;;8.45;5.78;;;27.40;97.00;;;;;;4190792;28;20427;-65
2021/07/11 08:54:20;;;;;;;8.30;5.65;;;27.30;97.10;;;;;;4190804;28;20101;-62
2021/07/11 08:56:25;;;;;;;8.20;5.32;;;27.30;97.20;;;;;;4190901;28;20025;-63
2021/07/11 08:58:27;;;;;;;11.73;5.47;;;27.40;96.90;;;;;;4190078;28;20105;-63
2021/07/11 09:00:31;;;;;;;9.20;5.88;;;27.50;96.80;;;;;;4190890;28;20028;-64
2021/07/11 09:02:32;;;;;;;7.15;5.25;;;27.40;96.80;;;;;;4190878;28;20518;-64
2021/07/11 09:04:45;;;;;;;6.97;5.43;;;27.40;96.70;;;;;;4191270;28;20041;-63
2021/07/11 09:06:49;;;;;;;10.13;5.88;;;27.20;96.60;;;;;;4190704;28;20455;-65
2021/07/11 09:08:57;;;;;;;6.50;5.90;;;27.30;96.80;;;;;;4191353;28;20041;-66
2021/07/11 09:11:00;;;;;;;7.70;6.00;;;27.60;96.50;;;;;;4191235;28;20473;-64
2021/07/11 09:13:02;;;;;;;5.93;5.30;;;27.50;96.40;;;;;;4189631;28;20078;-63
2021/07/11 09:15:03;;;;;;;7.32;5.93;;;27.40;96.40;;;;;;4191418;28;20362;-64
2021/07/11 09:17:06;;;;;;;6.32;5.13;;;27.50;96.50;;;;;;4190876;28;20037;-63
2021/07/11 09:19:19;;;;;;;8.88;5.45;;;27.60;96.90;;;;;;4190209;28;20522;-63
2021/07/11 09:21:21;;;;;;;6.68;5.97;;;27.80;96.50;;;;;;4190716;28;20446;-62
2021/07/11 09:23:22;;;;;;;10.35;6.10;;;27.90;96.40;;;;;;4190876;28;20024;-62
2021/07/11 09:25:24;;;;;;;8.75;6.07;;;28.00;96.20;;;;;;4191263;28;20098;-64
2021/07/11 09:27:31;;;;;;;6.20;5.18;;;28.10;96.20;;;;;;4190363;28;20032;-64
2021/07/11 09:29:32;;;;;;;6.97;5.63;;;28.00;96.00;;;;;;4190563;28;20044;-63
2021/07/11 09:31:36;;;;;;;5.47;4.97;;;28.00;96.20;;;;;;4190497;28;20058;-64
2021/07/11 09:33:40;;;;;;;6.55;5.55;;;28.20;96.10;;;;;;4190699;28;20860;-64
2021/07/11 09:35:41;;;;;;;7.07;5.63;;;28.10;96.20;;;;;;4188296;28;20090;-62
2021/07/11 09:37:48;;;;;;;6.38;5.70;;;28.20;96.40;;;;;;4189540;28;20032;-64
2021/07/11 09:39:55;;;;;;;9.73;5.50;;;28.40;96.40;;;;;;4189892;28;20110;-65
2021/07/11 09:42:01;;;;;;;11.00;5.57;;;28.50;95.90;;;;;;4190110;28;20032;-63
2021/07/11 09:44:07;;;;;;;9.25;5.45;;;28.50;95.80;;;;;;4189805;28;20020;-64
2021/07/11 09:46:15;;;;;;;6.70;6.03;;;28.30;96.00;;;;;;4189666;28;20024;-64
2021/07/11 09:48:16;;;;;;;7.57;5.70;;;28.30;96.10;;;;;;4188984;28;20029;-66
2021/07/11 09:50:26;;;;;;;6.78;5.68;;;28.30;96.00;;;;;;4189170;28;20090;-64
2021/07/11 09:52:29;;;;;;;8.50;5.60;;;28.30;95.90;;;;;;4189956;28;20461;-64
2021/07/11 09:54:30;;;;;;;8.48;5.53;;;28.30;95.90;;;;;;4189519;28;20041;-64
2021/07/11 09:56:33;;;;;;;7.32;5.65;;;28.30;95.90;;;;;;4189796;28;20040;-64
2021/07/11 09:58:34;;;;;;;6.70;5.07;;;28.30;95.90;;;;;;4189955;28;20036;-65
2021/07/11 10:00:41;;;;;;;7.75;5.75;;;28.30;95.90;;;;;;4189861;28;20024;-65
2021/07/11 10:02:44;;;;;;;6.22;5.18;;;28.30;96.00;;;;;;4189235;28;20804;-64
2021/07/11 10:04:45;;;;;;;8.95;6.35;;;28.30;96.00;;;;;;4189485;28;20484;-63
2021/07/11 10:06:46;;;;;;;6.68;5.97;;;28.20;96.10;;;;;;4189851;28;20040;-64
2021/07/11 10:08:47;;;;;;;10.63;5.50;;;28.30;95.90;;;;;;4189910;28;20419;-63
2021/07/11 10:10:48;;;;;;;6.13;5.43;;;28.30;95.80;;;;;;4189607;28;20431;-63
2021/07/11 10:12:50;;;;;;;5.38;4.85;;;28.30;95.60;;;;;;4189156;28;20086;-64
2021/07/11 10:14:53;;;;;;;5.80;5.03;;;28.40;95.40;;;;;;4189940;28;20024;-63
2021/07/11 10:16:54;;;;;;;6.85;5.38;;;28.60;95.30;;;;;;4187686;28;20037;-63
2021/07/11 10:18:58;;;;;;;7.80;5.47;;;28.50;95.10;;;;;;4189395;28;20048;-64
2021/07/11 10:20:59;;;;;;;11.30;5.05;;;28.60;95.10;;;;;;4189707;28;20492;-65
2021/07/11 10:23:01;;;;;;;6.40;5.47;;;28.60;94.80;;;;;;4190058;28;20048;-64
2021/07/11 10:25:11;;;;;;;5.60;5.05;;;28.50;94.90;;;;;;4189711;28;20028;-64
2021/07/11 10:27:18;;;;;;;8.43;6.07;;;28.50;94.20;;;;;;4189939;28;20025;-64
2021/07/11 10:29:22;;;;;;;5.05;4.55;;;28.40;94.40;;;;;;4189565;28;20477;-69
2021/07/11 10:31:26;;;;;;;7.90;5.20;;;28.30;94.40;;;;;;4187674;28;20049;-64
2021/07/11 10:33:27;;;;;;;7.45;5.10;;;28.40;94.30;;;;;;4190387;28;20085;-63
2021/07/11 10:35:28;;;;;;;6.40;5.20;;;28.30;94.40;;;;;;4189350;28;20075;-63
2021/07/11 10:37:50;;;;;;;5.05;4.53;;;28.50;94.50;;;;;;4189201;28;20060;-63